sensor_id;sensor_type;location;lat;lon;timestamp;pressure;altitude;pressure_sealevel;temperature;humidity
75815;BME280;64451;45.574;14.224;2023-01-08T00:00:11;97197.69;;;6.23;95.93
75815;BME280;64451;45.574;14.224;2023-01-08T00:02:12;97203.56;;;6.25;96.35
75815;BME280;64451;45.574;14.224;2023-01-08T00:04:12;97200.34;;;6.23;96.24
75815;BME280;64451;45.574;14.224;2023-01-08T00:06:15;97194.50;;;6.26;96.33
75815;BME280;64451;45.574;14.224;2023-01-08T00:08:16;97194.22;;;6.22;96.19
75815;BME280;64451;45.574;14.224;2023-01-08T00:10:16;97190.41;;;6.18;96.41
75815;BME280;64451;45.574;14.224;2023-01-08T00:12:16;97188.06;;;6.22;96.38
75815;BME280;64451;45.574;14.224;2023-01-08T00:14:17;97181.50;;;6.34;95.78
75815;BME280;64451;45.574;14.224;2023-01-08T00:16:18;97179.47;;;6.19;96.54
75815;BME280;64451;45.574;14.224;2023-01-08T00:18:19;97183.72;;;6.15;97.15
75815;BME280;64451;45.574;14.224;2023-01-08T00:20:19;97180.72;;;6.12;97.33
75815;BME280;64451;45.574;14.224;2023-01-08T00:22:19;97182.09;;;6.14;97.35
75815;BME280;64451;45.574;14.224;2023-01-08T00:24:20;97183.72;;;6.15;97.08
75815;BME280;64451;45.574;14.224;2023-01-08T00:26:20;97182.66;;;6.16;97.39
75815;BME280;64451;45.574;14.224;2023-01-08T00:28:20;97182.34;;;6.13;97.57
75815;BME280;64451;45.574;14.224;2023-01-08T00:30:21;97171.91;;;6.11;97.81
75815;BME280;64451;45.574;14.224;2023-01-08T00:32:21;97174.00;;;6.09;98.23
75815;BME280;64451;45.574;14.224;2023-01-08T00:34:21;97170.53;;;6.09;98.08
75815;BME280;64451;45.574;14.224;2023-01-08T00:36:22;97179.16;;;6.16;97.90
75815;BME280;64451;45.574;14.224;2023-01-08T00:38:26;97173.22;;;6.09;98.18
75815;BME280;64451;45.574;14.224;2023-01-08T00:40:27;97176.94;;;6.08;98.44
75815;BME280;64451;45.574;14.224;2023-01-08T00:42:27;97171.41;;;6.14;98.31
75815;BME280;64451;45.574;14.224;2023-01-08T00:44:27;97170.88;;;6.44;96.38
75815;BME280;64451;45.574;14.224;2023-01-08T00:46:28;97175.44;;;6.17;97.34
75815;BME280;64451;45.574;14.224;2023-01-08T00:48:28;97167.88;;;6.09;98.08
75815;BME280;64451;45.574;14.224;2023-01-08T00:50:28;97170.91;;;6.17;98.00
75815;BME280;64451;45.574;14.224;2023-01-08T00:52:29;97174.63;;;6.16;97.91
75815;BME280;64451;45.574;14.224;2023-01-08T00:54:29;97173.00;;;6.42;96.28
75815;BME280;64451;45.574;14.224;2023-01-08T00:56:29;97173.06;;;6.20;97.34
75815;BME280;64451;45.574;14.224;2023-01-08T00:58:30;97171.56;;;6.30;97.06
75815;BME280;64451;45.574;14.224;2023-01-08T01:00:31;97175.16;;;6.13;97.65
75815;BME280;64451;45.574;14.224;2023-01-08T01:02:33;97176.44;;;6.11;98.09
75815;BME280;64451;45.574;14.224;2023-01-08T01:04:33;97178.81;;;6.07;98.58
75815;BME280;64451;45.574;14.224;2023-01-08T01:06:34;97179.06;;;6.06;98.59
75815;BME280;64451;45.574;14.224;2023-01-08T01:08:34;97172.22;;;6.15;98.54
75815;BME280;64451;45.574;14.224;2023-01-08T01:10:37;97173.22;;;6.09;98.37
75815;BME280;64451;45.574;14.224;2023-01-08T01:12:38;97180.41;;;6.08;98.52
75815;BME280;64451;45.574;14.224;2023-01-08T01:14:39;97179.34;;;6.09;98.66
75815;BME280;64451;45.574;14.224;2023-01-08T01:16:39;97176.94;;;6.08;98.71
75815;BME280;64451;45.574;14.224;2023-01-08T01:18:41;97174.53;;;6.06;98.81
75815;BME280;64451;45.574;14.224;2023-01-08T01:20:41;97176.13;;;6.07;98.81
75815;BME280;64451;45.574;14.224;2023-01-08T01:22:42;97179.06;;;6.06;99.02
75815;BME280;64451;45.574;14.224;2023-01-08T01:24:42;97174.53;;;6.06;98.99
75815;BME280;64451;45.574;14.224;2023-01-08T01:26:43;97179.88;;;6.06;99.15
75815;BME280;64451;45.574;14.224;2023-01-08T01:28:46;97177.50;;;6.10;98.85
75815;BME280;64451;45.574;14.224;2023-01-08T01:30:53;97179.72;;;6.18;98.34
75815;BME280;64451;45.574;14.224;2023-01-08T01:32:54;97181.38;;;6.24;97.70
75815;BME280;64451;45.574;14.224;2023-01-08T01:34:54;97183.00;;;6.25;97.59
75815;BME280;64451;45.574;14.224;2023-01-08T01:36:54;97177.00;;;6.13;97.82
75815;BME280;64451;45.574;14.224;2023-01-08T01:38:56;97176.75;;;6.14;98.17
75815;BME280;64451;45.574;14.224;2023-01-08T01:40:57;97173.75;;;6.11;98.31
75815;BME280;64451;45.574;14.224;2023-01-08T01:42:57;97182.03;;;6.09;98.75
75815;BME280;64451;45.574;14.224;2023-01-08T01:44:58;97176.69;;;6.09;98.56
75815;BME280;64451;45.574;14.224;2023-01-08T01:47:00;97184.69;;;6.09;98.67
75815;BME280;64451;45.574;14.224;2023-01-08T01:49:10;97175.63;;;6.10;98.71
75815;BME280;64451;45.574;14.224;2023-01-08T01:51:12;97178.56;;;6.09;98.84
75815;BME280;64451;45.574;14.224;2023-01-08T01:53:28;97180.69;;;6.07;98.82
75815;BME280;64451;45.574;14.224;2023-01-08T01:55:30;97179.34;;;6.09;98.89
75815;BME280;64451;45.574;14.224;2023-01-08T01:57:32;97184.22;;;6.12;98.67
75815;BME280;64451;45.574;14.224;2023-01-08T01:59:32;97177.22;;;6.11;98.54
75815;BME280;64451;45.574;14.224;2023-01-08T02:01:33;97170.88;;;6.12;98.52
75815;BME280;64451;45.574;14.224;2023-01-08T02:03:36;97179.69;;;6.13;98.39
75815;BME280;64451;45.574;14.224;2023-01-08T02:05:47;97170.09;;;6.17;98.15
75815;BME280;64451;45.574;14.224;2023-01-08T02:07:55;97171.66;;;6.13;98.14
75815;BME280;64451;45.574;14.224;2023-01-08T02:10:13;97166.78;;;6.32;97.33
75815;BME280;64451;45.574;14.224;2023-01-08T02:12:24;97162.38;;;6.20;97.26
75815;BME280;64451;45.574;14.224;2023-01-08T02:14:30;97160.47;;;6.16;98.16
75815;BME280;64451;45.574;14.224;2023-01-08T02:16:41;97158.59;;;6.16;98.33
75815;BME280;64451;45.574;14.224;2023-01-08T02:18:46;97164.22;;;6.20;97.88
75815;BME280;64451;45.574;14.224;2023-01-08T02:21:19;97152.72;;;6.14;98.43
75815;BME280;64451;45.574;14.224;2023-01-08T02:23:46;97151.81;;;6.36;97.78
75815;BME280;64451;45.574;14.224;2023-01-08T02:28:13;97142.66;;;6.27;97.39
75815;BME280;64451;45.574;14.224;2023-01-08T02:30:15;97149.06;;;6.26;97.80
75815;BME280;64451;45.574;14.224;2023-01-08T02:32:16;97147.75;;;6.28;97.72
75815;BME280;64451;45.574;14.224;2023-01-08T02:34:17;97137.84;;;6.29;97.73
75815;BME280;64451;45.574;14.224;2023-01-08T02:38:28;97143.59;;;6.37;97.19
75815;BME280;64451;45.574;14.224;2023-01-08T02:40:36;97143.59;;;6.37;96.97
75815;BME280;64451;45.574;14.224;2023-01-08T02:42:54;97144.69;;;6.41;96.47
75815;BME280;64451;45.574;14.224;2023-01-08T02:47:36;97139.72;;;6.28;97.32
75815;BME280;64451;45.574;14.224;2023-01-08T02:49:41;97139.25;;;6.31;97.25
75815;BME280;64451;45.574;14.224;2023-01-08T02:51:48;97130.16;;;6.32;96.79
75815;BME280;64451;45.574;14.224;2023-01-08T02:53:57;97126.44;;;6.33;96.87
75815;BME280;64451;45.574;14.224;2023-01-08T02:56:03;97126.88;;;6.25;97.11
75815;BME280;64451;45.574;14.224;2023-01-08T02:58:05;97130.72;;;6.34;96.98
75815;BME280;64451;45.574;14.224;2023-01-08T03:00:06;97124.28;;;6.30;96.99
75815;BME280;64451;45.574;14.224;2023-01-08T03:02:07;97117.59;;;6.33;96.96
75815;BME280;64451;45.574;14.224;2023-01-08T03:04:15;97117.00;;;6.26;97.29
75815;BME280;64451;45.574;14.224;2023-01-08T03:06:18;97098.22;;;6.20;98.04
75815;BME280;64451;45.574;14.224;2023-01-08T03:08:20;97092.34;;;6.18;97.96
75815;BME280;64451;45.574;14.224;2023-01-08T03:10:21;97089.94;;;6.17;98.33
75815;BME280;64451;45.574;14.224;2023-01-08T03:12:35;97080.31;;;6.48;96.60
75815;BME280;64451;45.574;14.224;2023-01-08T03:14:43;97074.78;;;6.60;95.24
75815;BME280;64451;45.574;14.224;2023-01-08T03:16:48;97078.09;;;6.40;96.63
75815;BME280;64451;45.574;14.224;2023-01-08T03:19:00;97070.28;;;6.33;97.44
75815;BME280;64451;45.574;14.224;2023-01-08T03:21:03;97078.22;;;6.23;98.00
75815;BME280;64451;45.574;14.224;2023-01-08T03:23:08;97077.16;;;6.24;97.79
75815;BME280;64451;45.574;14.224;2023-01-08T03:25:11;97064.88;;;6.23;98.06
75815;BME280;64451;45.574;14.224;2023-01-08T03:27:16;97060.88;;;6.26;98.03
75815;BME280;64451;45.574;14.224;2023-01-08T03:29:19;97067.81;;;6.22;98.01
75815;BME280;64451;45.574;14.224;2023-01-08T03:31:25;97066.47;;;6.24;97.91
75815;BME280;64451;45.574;14.224;2023-01-08T03:33:28;97064.31;;;6.21;97.87
75815;BME280;64451;45.574;14.224;2023-01-08T03:35:30;97067.34;;;6.30;97.55
75815;BME280;64451;45.574;14.224;2023-01-08T03:37:35;97075.19;;;6.41;96.57
75815;BME280;64451;45.574;14.224;2023-01-08T03:39:40;97064.75;;;6.40;96.31
75815;BME280;64451;45.574;14.224;2023-01-08T03:41:42;97068.28;;;6.45;95.91
75815;BME280;64451;45.574;14.224;2023-01-08T03:43:43;97069.88;;;6.46;95.45
75815;BME280;64451;45.574;14.224;2023-01-08T03:45:50;97067.75;;;6.54;95.13
75815;BME280;64451;45.574;14.224;2023-01-08T03:47:52;97064.75;;;6.40;95.96
75815;BME280;64451;45.574;14.224;2023-01-08T03:49:54;97059.59;;;6.33;96.54
75815;BME280;64451;45.574;14.224;2023-01-08T03:51:55;97055.88;;;6.34;96.73
75815;BME280;64451;45.574;14.224;2023-01-08T03:53:57;97055.28;;;6.27;97.10
75815;BME280;64451;45.574;14.224;2023-01-08T03:55:57;97041.91;;;6.27;97.42
75815;BME280;64451;45.574;14.224;2023-01-08T03:57:58;97044.56;;;6.22;97.45
75815;BME280;64451;45.574;14.224;2023-01-08T03:59:58;97045.38;;;6.23;97.30
75815;BME280;64451;45.574;14.224;2023-01-08T04:01:58;97036.22;;;6.18;97.63
75815;BME280;64451;45.574;14.224;2023-01-08T04:03:59;97046.16;;;6.23;97.56
75815;BME280;64451;45.574;14.224;2023-01-08T04:05:59;97060.13;;;6.30;96.93
75815;BME280;64451;45.574;14.224;2023-01-08T04:08:00;97054.84;;;6.40;96.66
75815;BME280;64451;45.574;14.224;2023-01-08T04:10:00;97051.06;;;6.36;96.53
75815;BME280;64451;45.574;14.224;2023-01-08T04:12:01;97049.19;;;6.32;97.16
75815;BME280;64451;45.574;14.224;2023-01-08T04:14:01;97055.84;;;6.29;97.50
75815;BME280;64451;45.574;14.224;2023-01-08T04:16:01;97048.31;;;6.26;97.58
75815;BME280;64451;45.574;14.224;2023-01-08T04:18:02;97040.81;;;6.23;97.71
75815;BME280;64451;45.574;14.224;2023-01-08T04:20:03;97042.72;;;6.28;97.93
75815;BME280;64451;45.574;14.224;2023-01-08T04:22:03;97039.75;;;6.24;98.09
75815;BME280;64451;45.574;14.224;2023-01-08T04:24:04;97045.66;;;6.26;97.91
75815;BME280;64451;45.574;14.224;2023-01-08T04:26:06;97037.53;;;6.48;96.67
75815;BME280;64451;45.574;14.224;2023-01-08T04:28:07;97041.38;;;6.25;97.69
75815;BME280;64451;45.574;14.224;2023-01-08T04:30:08;97048.03;;;6.23;97.73
75815;BME280;64451;45.574;14.224;2023-01-08T04:32:09;97044.16;;;6.40;97.50
75815;BME280;64451;45.574;14.224;2023-01-08T04:34:09;97061.34;;;6.50;96.46
75815;BME280;64451;45.574;14.224;2023-01-08T04:36:10;97056.00;;;6.50;96.31
75815;BME280;64451;45.574;14.224;2023-01-08T04:38:10;97051.66;;;6.43;96.62
75815;BME280;64451;45.574;14.224;2023-01-08T04:40:10;97055.88;;;6.34;97.28
75815;BME280;64451;45.574;14.224;2023-01-08T04:42:11;97055.31;;;6.32;97.61
75815;BME280;64451;45.574;14.224;2023-01-08T04:44:11;97063.34;;;6.32;97.59
75815;BME280;64451;45.574;14.224;2023-01-08T04:46:11;97063.88;;;6.34;97.72
75815;BME280;64451;45.574;14.224;2023-01-08T04:48:12;97063.59;;;6.31;97.83
75815;BME280;64451;45.574;14.224;2023-01-08T04:50:12;97062.28;;;6.33;98.15
75815;BME280;64451;45.574;14.224;2023-01-08T04:52:12;97061.75;;;6.36;97.79
75815;BME280;64451;45.574;14.224;2023-01-08T04:54:13;97061.84;;;6.46;96.95
75815;BME280;64451;45.574;14.224;2023-01-08T04:56:13;97061.41;;;6.60;96.35
75815;BME280;64451;45.574;14.224;2023-01-08T04:58:14;97072.41;;;6.63;96.23
75815;BME280;64451;45.574;14.224;2023-01-08T05:00:14;97061.34;;;6.50;96.61
75815;BME280;64451;45.574;14.224;2023-01-08T05:02:15;97049.16;;;6.69;95.81
75815;BME280;64451;45.574;14.224;2023-01-08T05:04:15;97046.78;;;6.72;95.48
75815;BME280;64451;45.574;14.224;2023-01-08T05:06:15;97042.56;;;6.39;97.13
75815;BME280;64451;45.574;14.224;2023-01-08T05:08:16;97047.03;;;6.34;97.84
75815;BME280;64451;45.574;14.224;2023-01-08T05:10:17;97044.50;;;6.49;97.39
75815;BME280;64451;45.574;14.224;2023-01-08T05:12:17;97038.03;;;6.45;97.00
75815;BME280;64451;45.574;14.224;2023-01-08T05:14:17;97034.22;;;6.36;97.73
75815;BME280;64451;45.574;14.224;2023-01-08T05:16:18;97041.91;;;6.27;98.40
75815;BME280;64451;45.574;14.224;2023-01-08T05:18:18;97042.47;;;6.29;98.53
75815;BME280;64451;45.574;14.224;2023-01-08T05:20:18;97041.41;;;6.30;98.37
75815;BME280;64451;45.574;14.224;2023-01-08T05:22:19;97038.75;;;6.30;98.51
75815;BME280;64451;45.574;14.224;2023-01-08T05:24:19;97047.00;;;6.29;98.73
75815;BME280;64451;45.574;14.224;2023-01-08T05:26:19;97041.09;;;6.27;98.88
75815;BME280;64451;45.574;14.224;2023-01-08T05:28:20;97040.63;;;6.30;98.78
75815;BME280;64451;45.574;14.224;2023-01-08T05:30:20;97047.34;;;6.37;98.59
75815;BME280;64451;45.574;14.224;2023-01-08T05:32:20;97041.50;;;6.40;98.00
75815;BME280;64451;45.574;14.224;2023-01-08T05:34:21;97042.56;;;6.39;97.94
75815;BME280;64451;45.574;14.224;2023-01-08T05:36:21;97047.91;;;6.39;98.19
75815;BME280;64451;45.574;14.224;2023-01-08T05:38:21;97045.00;;;6.46;97.81
75815;BME280;64451;45.574;14.224;2023-01-08T05:40:22;97037.06;;;6.56;97.51
75815;BME280;64451;45.574;14.224;2023-01-08T05:42:22;97040.75;;;6.50;97.59
75815;BME280;64451;45.574;14.224;2023-01-08T05:44:22;97031.66;;;6.46;98.42
75815;BME280;64451;45.574;14.224;2023-01-08T05:46:23;97035.88;;;6.79;95.85
75815;BME280;64451;45.574;14.224;2023-01-08T05:48:23;97028.94;;;6.83;95.14
75815;BME280;64451;45.574;14.224;2023-01-08T05:50:24;97023.22;;;6.64;95.88
75815;BME280;64451;45.574;14.224;2023-01-08T05:52:25;97022.88;;;6.56;97.16
75815;BME280;64451;45.574;14.224;2023-01-08T05:54:26;97020.38;;;6.44;97.56
75815;BME280;64451;45.574;14.224;2023-01-08T05:56:26;97016.66;;;6.45;97.89
75815;BME280;64451;45.574;14.224;2023-01-08T05:58:27;97014.50;;;6.42;98.24
75815;BME280;64451;45.574;14.224;2023-01-08T06:00:27;97017.06;;;6.64;96.80
75815;BME280;64451;45.574;14.224;2023-01-08T06:02:28;97013.09;;;6.76;96.04
75815;BME280;64451;45.574;14.224;2023-01-08T06:04:28;97006.78;;;6.93;94.70
75815;BME280;64451;45.574;14.224;2023-01-08T06:06:28;97004.94;;;6.98;93.70
75815;BME280;64451;45.574;14.224;2023-01-08T06:08:29;97009.09;;;6.74;95.20
75815;BME280;64451;45.574;14.224;2023-01-08T06:10:30;97007.16;;;6.64;96.30
75815;BME280;64451;45.574;14.224;2023-01-08T06:12:30;96999.59;;;6.51;97.27
75815;BME280;64451;45.574;14.224;2023-01-08T06:14:30;96996.91;;;6.46;97.44
75815;BME280;64451;45.574;14.224;2023-01-08T06:16:31;96990.97;;;6.39;98.12
75815;BME280;64451;45.574;14.224;2023-01-08T06:18:31;96986.41;;;6.39;98.20
75815;BME280;64451;45.574;14.224;2023-01-08T06:20:31;96979.75;;;6.42;97.76
75815;BME280;64451;45.574;14.224;2023-01-08T06:22:32;96985.91;;;6.42;97.89
75815;BME280;64451;45.574;14.224;2023-01-08T06:24:33;96981.84;;;6.35;98.32
75815;BME280;64451;45.574;14.224;2023-01-08T06:26:33;96981.06;;;6.39;98.40
75815;BME280;64451;45.574;14.224;2023-01-08T06:28:34;96986.38;;;6.34;98.26
75815;BME280;64451;45.574;14.224;2023-01-08T06:30:35;96985.03;;;6.32;98.57
75815;BME280;64451;45.574;14.224;2023-01-08T06:32:35;96976.75;;;6.33;98.69
75815;BME280;64451;45.574;14.224;2023-01-08T06:34:35;96981.03;;;6.34;98.41
75815;BME280;64451;45.574;14.224;2023-01-08T06:36:36;96982.09;;;6.33;98.62
75815;BME280;64451;45.574;14.224;2023-01-08T06:38:36;96984.56;;;6.40;98.39
75815;BME280;64451;45.574;14.224;2023-01-08T06:40:36;96992.31;;;6.41;98.10
75815;BME280;64451;45.574;14.224;2023-01-08T06:42:37;96994.22;;;6.51;97.47
75815;BME280;64451;45.574;14.224;2023-01-08T06:44:37;96988.13;;;6.56;97.19
75815;BME280;64451;45.574;14.224;2023-01-08T06:46:37;96995.34;;;6.60;96.50
75815;BME280;64451;45.574;14.224;2023-01-08T06:48:39;97006.00;;;6.50;97.39
75815;BME280;64451;45.574;14.224;2023-01-08T06:50:39;97004.66;;;6.53;97.07
75815;BME280;64451;45.574;14.224;2023-01-08T06:52:40;97008.41;;;6.52;97.61
75815;BME280;64451;45.574;14.224;2023-01-08T06:54:40;97006.38;;;6.69;96.44
75815;BME280;64451;45.574;14.224;2023-01-08T06:56:40;97008.63;;;6.92;94.48
75815;BME280;64451;45.574;14.224;2023-01-08T06:58:41;97008.94;;;6.54;97.04
75815;BME280;64451;45.574;14.224;2023-01-08T07:00:42;97011.06;;;6.52;97.45
75815;BME280;64451;45.574;14.224;2023-01-08T07:02:42;97002.72;;;6.80;95.79
75815;BME280;64451;45.574;14.224;2023-01-08T07:04:42;97007.03;;;6.91;95.01
75815;BME280;64451;45.574;14.224;2023-01-08T07:06:43;96993.94;;;6.95;94.29
75815;BME280;64451;45.574;14.224;2023-01-08T07:08:43;96990.97;;;6.91;94.42
75815;BME280;64451;45.574;14.224;2023-01-08T07:10:45;96991.03;;;6.96;94.47
75815;BME280;64451;45.574;14.224;2023-01-08T07:12:45;97000.47;;;6.67;96.18
75815;BME280;64451;45.574;14.224;2023-01-08T07:14:46;96985.38;;;6.88;95.07
75815;BME280;64451;45.574;14.224;2023-01-08T07:16:46;96980.81;;;6.88;94.66
75815;BME280;64451;45.574;14.224;2023-01-08T07:18:46;96976.22;;;6.84;94.91
75815;BME280;64451;45.574;14.224;2023-01-08T07:20:47;96979.06;;;6.62;96.20
75815;BME280;64451;45.574;14.224;2023-01-08T07:22:48;96971.69;;;6.84;95.55
75815;BME280;64451;45.574;14.224;2023-01-08T07:24:48;96988.94;;;6.61;97.27
75815;BME280;64451;45.574;14.224;2023-01-08T07:26:48;96982.00;;;6.60;97.26
75815;BME280;64451;45.574;14.224;2023-01-08T07:28:49;96987.88;;;6.57;97.67
75815;BME280;64451;45.574;14.224;2023-01-08T07:30:49;96985.72;;;6.59;97.80
75815;BME280;64451;45.574;14.224;2023-01-08T07:32:49;96983.59;;;6.61;97.59
75815;BME280;64451;45.574;14.224;2023-01-08T07:34:50;96979.72;;;6.79;96.67
75815;BME280;64451;45.574;14.224;2023-01-08T07:36:53;96967.91;;;6.75;97.29
75815;BME280;64451;45.574;14.224;2023-01-08T07:38:53;96966.84;;;6.76;96.75
75815;BME280;64451;45.574;14.224;2023-01-08T07:40:56;96970.09;;;6.83;96.91
75815;BME280;64451;45.574;14.224;2023-01-08T07:42:58;96978.09;;;6.83;96.86
75815;BME280;64451;45.574;14.224;2023-01-08T07:44:59;96972.50;;;6.85;96.84
75815;BME280;64451;45.574;14.224;2023-01-08T07:46:59;96984.00;;;6.85;96.92
75815;BME280;64451;45.574;14.224;2023-01-08T07:48:59;96976.53;;;6.87;96.76
75815;BME280;64451;45.574;14.224;2023-01-08T07:51:01;96983.19;;;6.80;96.98
75815;BME280;64451;45.574;14.224;2023-01-08T07:53:03;96983.69;;;6.76;97.25
75815;BME280;64451;45.574;14.224;2023-01-08T07:55:04;96977.66;;;7.01;95.55
75815;BME280;64451;45.574;14.224;2023-01-08T07:57:04;96979.22;;;6.92;96.04
75815;BME280;64451;45.574;14.224;2023-01-08T07:59:04;96980.75;;;6.78;97.35
75815;BME280;64451;45.574;14.224;2023-01-08T08:01:09;96977.56;;;6.86;97.11
75815;BME280;64451;45.574;14.224;2023-01-08T08:03:10;96967.50;;;7.03;95.81
75815;BME280;64451;45.574;14.224;2023-01-08T08:05:10;96963.75;;;7.10;95.27
75815;BME280;64451;45.574;14.224;2023-01-08T08:07:10;96961.38;;;7.18;94.74
75815;BME280;64451;45.574;14.224;2023-01-08T08:09:11;96957.88;;;7.08;95.80
75815;BME280;64451;45.574;14.224;2023-01-08T08:11:11;96961.38;;;7.13;95.59
75815;BME280;64451;45.574;14.224;2023-01-08T08:13:11;96956.88;;;7.29;95.13
75815;BME280;64451;45.574;14.224;2023-01-08T08:15:12;96952.88;;;7.37;94.09
75815;BME280;64451;45.574;14.224;2023-01-08T08:17:12;96951.28;;;7.46;93.39
75815;BME280;64451;45.574;14.224;2023-01-08T08:19:13;96961.44;;;7.33;94.11
75815;BME280;64451;45.574;14.224;2023-01-08T08:21:14;96960.66;;;7.43;93.68
75815;BME280;64451;45.574;14.224;2023-01-08T08:23:15;96943.81;;;7.58;92.77
75815;BME280;64451;45.574;14.224;2023-01-08T08:25:15;96947.31;;;7.64;92.79
75815;BME280;64451;45.574;14.224;2023-01-08T08:27:15;96944.88;;;7.47;94.00
75815;BME280;64451;45.574;14.224;2023-01-08T08:29:16;96951.00;;;7.42;95.27
75815;BME280;64451;45.574;14.224;2023-01-08T08:31:16;96962.00;;;7.46;94.71
75815;BME280;64451;45.574;14.224;2023-01-08T08:33:16;96963.28;;;7.28;95.20
75815;BME280;64451;45.574;14.224;2023-01-08T08:35:17;96959.78;;;7.17;96.03
75815;BME280;64451;45.574;14.224;2023-01-08T08:37:17;96949.88;;;7.18;96.26
75815;BME280;64451;45.574;14.224;2023-01-08T08:39:17;96952.34;;;7.50;94.56
75815;BME280;64451;45.574;14.224;2023-01-08T08:41:18;96945.41;;;7.59;93.55
75815;BME280;64451;45.574;14.224;2023-01-08T08:43:18;96953.47;;;7.54;94.55
75815;BME280;64451;45.574;14.224;2023-01-08T08:45:18;96958.53;;;7.45;95.43
75815;BME280;64451;45.574;14.224;2023-01-08T08:47:19;96951.56;;;7.49;95.19
75815;BME280;64451;45.574;14.224;2023-01-08T08:49:20;96955.63;;;7.82;93.51
75815;BME280;64451;45.574;14.224;2023-01-08T08:51:20;96954.25;;;7.59;94.06
75815;BME280;64451;45.574;14.224;2023-01-08T08:53:21;96951.84;;;7.48;94.85
75815;BME280;64451;45.574;14.224;2023-01-08T08:55:21;96944.59;;;7.38;95.84
75815;BME280;64451;45.574;14.224;2023-01-08T08:57:25;96950.72;;;7.44;95.58
75815;BME280;64451;45.574;14.224;2023-01-08T08:59:25;96936.31;;;7.45;95.34
75815;BME280;64451;45.574;14.224;2023-01-08T09:01:26;96941.91;;;7.48;95.34
75815;BME280;64451;45.574;14.224;2023-01-08T09:03:26;96943.00;;;7.57;94.66
75815;BME280;64451;45.574;14.224;2023-01-08T09:05:27;96947.28;;;7.48;94.95
75815;BME280;64451;45.574;14.224;2023-01-08T09:07:27;96956.09;;;7.39;95.59
75815;BME280;64451;45.574;14.224;2023-01-08T09:09:28;96945.66;;;7.47;95.59
75815;BME280;64451;45.574;14.224;2023-01-08T09:11:28;96948.34;;;7.37;95.95
75815;BME280;64451;45.574;14.224;2023-01-08T09:13:28;96947.25;;;7.33;96.53
75815;BME280;64451;45.574;14.224;2023-01-08T09:15:29;96957.16;;;7.38;96.97
75815;BME280;64451;45.574;14.224;2023-01-08T09:17:29;96952.59;;;7.33;97.07
75815;BME280;64451;45.574;14.224;2023-01-08T09:19:30;96953.66;;;7.32;97.45
75815;BME280;64451;45.574;14.224;2023-01-08T09:21:30;96957.69;;;7.35;97.06
75815;BME280;64451;45.574;14.224;2023-01-08T09:23:31;96944.06;;;7.56;95.99
75815;BME280;64451;45.574;14.224;2023-01-08T09:25:31;96949.97;;;7.53;96.42
75815;BME280;64451;45.574;14.224;2023-01-08T09:27:31;96950.22;;;7.37;97.21
75815;BME280;64451;45.574;14.224;2023-01-08T09:29:32;96949.38;;;7.36;97.58
75815;BME280;64451;45.574;14.224;2023-01-08T09:31:33;96958.00;;;7.48;97.12
75815;BME280;64451;45.574;14.224;2023-01-08T09:33:33;96954.22;;;7.39;97.61
75815;BME280;64451;45.574;14.224;2023-01-08T09:35:34;96953.69;;;7.37;97.43
75815;BME280;64451;45.574;14.224;2023-01-08T09:37:34;96949.13;;;7.38;97.07
75815;BME280;64451;45.574;14.224;2023-01-08T09:39:35;96948.59;;;7.30;97.82
75815;BME280;64451;45.574;14.224;2023-01-08T09:41:42;96938.94;;;7.35;98.16
75815;BME280;64451;45.574;14.224;2023-01-08T09:43:45;96947.00;;;7.40;97.68
75815;BME280;64451;45.574;14.224;2023-01-08T09:45:52;96953.16;;;7.40;98.56
75815;BME280;64451;45.574;14.224;2023-01-08T09:47:56;96935.78;;;7.58;97.66
75815;BME280;64451;45.574;14.224;2023-01-08T09:50:02;96940.06;;;7.74;95.95
75815;BME280;64451;45.574;14.224;2023-01-08T09:52:03;96934.44;;;7.81;95.57
75815;BME280;64451;45.574;14.224;2023-01-08T09:54:05;96927.22;;;7.81;95.61
75815;BME280;64451;45.574;14.224;2023-01-08T09:56:12;96922.38;;;7.83;95.60
75815;BME280;64451;45.574;14.224;2023-01-08T09:58:50;96928.03;;;7.87;95.48
75815;BME280;64451;45.574;14.224;2023-01-08T10:00:51;96928.00;;;7.92;95.25
75815;BME280;64451;45.574;14.224;2023-01-08T10:02:52;96929.63;;;7.98;95.13
75815;BME280;64451;45.574;14.224;2023-01-08T10:04:56;96916.75;;;8.05;94.03
75815;BME280;64451;45.574;14.224;2023-01-08T10:07:19;96923.97;;;8.10;94.20
75815;BME280;64451;45.574;14.224;2023-01-08T10:09:25;96913.53;;;8.08;94.13
75815;BME280;64451;45.574;14.224;2023-01-08T10:11:30;96919.19;;;8.12;94.34
75815;BME280;64451;45.574;14.224;2023-01-08T10:13:37;96903.34;;;8.15;94.06
75815;BME280;64451;45.574;14.224;2023-01-08T10:15:39;96897.47;;;7.93;96.23
75815;BME280;64451;45.574;14.224;2023-01-08T10:19:42;96891.78;;;8.25;93.75
75815;BME280;64451;45.574;14.224;2023-01-08T10:21:43;96885.38;;;8.36;92.79
75815;BME280;64451;45.574;14.224;2023-01-08T10:23:51;96875.41;;;8.47;92.71
75815;BME280;64451;45.574;14.224;2023-01-08T10:25:53;96870.00;;;8.57;92.44
75815;BME280;64451;45.574;14.224;2023-01-08T10:30:04;96856.78;;;8.76;91.46
75815;BME280;64451;45.574;14.224;2023-01-08T10:32:15;96853.06;;;8.67;92.32
75815;BME280;64451;45.574;14.224;2023-01-08T10:34:30;96854.06;;;8.86;91.22
75815;BME280;64451;45.574;14.224;2023-01-08T10:36:38;96846.03;;;8.76;92.99
75815;BME280;64451;45.574;14.224;2023-01-08T10:38:41;96837.84;;;9.01;90.35
75815;BME280;64451;45.574;14.224;2023-01-08T10:40:48;96842.91;;;9.08;89.35
75815;BME280;64451;45.574;14.224;2023-01-08T10:42:49;96846.09;;;9.20;88.67
75815;BME280;64451;45.574;14.224;2023-01-08T10:44:56;96845.81;;;9.17;88.55
75815;BME280;64451;45.574;14.224;2023-01-08T10:46:59;96841.78;;;9.19;88.79
75815;BME280;64451;45.574;14.224;2023-01-08T10:49:02;96840.81;;;9.00;90.42
75815;BME280;64451;45.574;14.224;2023-01-08T10:51:14;96836.81;;;8.97;90.21
75815;BME280;64451;45.574;14.224;2023-01-08T10:53:27;96839.00;;;8.95;91.64
75815;BME280;64451;45.574;14.224;2023-01-08T10:55:33;96838.19;;;8.90;91.58
75815;BME280;64451;45.574;14.224;2023-01-08T10:57:39;96829.13;;;8.81;90.63